Aumsville, Oregon
Current Conditions -  °F | °C
As of 9:56 AM on Friday 21 Nov 2014 (Local Time) from KSLE Reporting Station
Light Rain Light Rain  
Wind Chill: 51°   Ceiling: 8000
Heat Index: 51°   Visibility: 10mi
Dew Point: 45°   Wind: 13mph
Humidity: 80%   Direction: 180°S
Pressure: 29.76"   Gusts: NA
Location:  44.84°N, 122.87°W
Report Text: KSLE 211756Z 18011KT 10SM -RA BKN080 OVC095 11/07 A2976 RMK AO2 SLP079 P0002 60002 T01060072 10106 20078 58024
Loading
Personal Weather Stations






























Interactive Weather Map New forecast layout! Learn more

10-Day Weather Forecast

Advertisements
Track Severe Weather on mobile